<?xml version="1.0" encoding="UTF-8" standalone="no" ?>
<gpx xmlns="http://www.topografix.com/GPX/1/1" xmlns:xsi="http://www.w3.org/2001/XMLSchema-instance" xsi:schemaLocation="http://www.topografix.com/GPX/1/1 http://www.topografix.com/GPX/1/1/gpx.xsd" version="1.1" creator="VisuGPX - https://www.visugpx.com">
  <metadata>
    <name>arenes - oncopole</name>
    <desc><![CDATA[depart arenes
aller retour
10 km]]></desc>
  </metadata>
  <trk>
    <name><![CDATA[arenes - oncopole_1]]></name>
    <trkseg>
      <trkpt lat="43.59475" lon="1.41569">
        <ele>139.1</ele>
        <time>2017-03-08T11:54:53Z</time>
      </trkpt>
      <trkpt lat="43.59475" lon="1.41569">
        <ele>141.2</ele>
        <time>2017-03-08T11:55:07Z</time>
      </trkpt>
      <trkpt lat="43.59493" lon="1.41558">
        <ele>141</ele>
        <time>2017-03-08T11:55:12Z</time>
      </trkpt>
      <trkpt lat="43.59488" lon="1.41556">
        <ele>140.8</ele>
        <time>2017-03-08T11:55:16Z</time>
      </trkpt>
      <trkpt lat="43.5948" lon="1.41546">
        <ele>139.3</ele>
        <time>2017-03-08T11:55:21Z</time>
      </trkpt>
      <trkpt lat="43.59471" lon="1.41539">
        <ele>138.3</ele>
        <time>2017-03-08T11:55:24Z</time>
      </trkpt>
      <trkpt lat="43.59466" lon="1.41537">
        <ele>138</ele>
        <time>2017-03-08T11:55:27Z</time>
      </trkpt>
      <trkpt lat="43.59458" lon="1.41531">
        <ele>137.9</ele>
        <time>2017-03-08T11:55:31Z</time>
      </trkpt>
      <trkpt lat="43.59449" lon="1.41526">
        <ele>137.9</ele>
        <time>2017-03-08T11:55:34Z</time>
      </trkpt>
      <trkpt lat="43.59431" lon="1.41507">
        <ele>137.9</ele>
        <time>2017-03-08T11:55:44Z</time>
      </trkpt>
      <trkpt lat="43.5941" lon="1.41495">
        <ele>137.9</ele>
        <time>2017-03-08T11:55:54Z</time>
      </trkpt>
      <trkpt lat="43.59394" lon="1.4151">
        <ele>137.9</ele>
        <time>2017-03-08T11:56:06Z</time>
      </trkpt>
      <trkpt lat="43.59393" lon="1.41546">
        <ele>137.9</ele>
        <time>2017-03-08T11:56:16Z</time>
      </trkpt>
      <trkpt lat="43.59402" lon="1.41585">
        <ele>138.1</ele>
        <time>2017-03-08T11:56:26Z</time>
      </trkpt>
      <trkpt lat="43.59397" lon="1.41625">
        <ele>138.3</ele>
        <time>2017-03-08T11:56:35Z</time>
      </trkpt>
      <trkpt lat="43.59401" lon="1.41662">
        <ele>138.5</ele>
        <time>2017-03-08T11:56:45Z</time>
      </trkpt>
      <trkpt lat="43.59403" lon="1.41692">
        <ele>138.6</ele>
        <time>2017-03-08T11:56:55Z</time>
      </trkpt>
      <trkpt lat="43.5941" lon="1.4172">
        <ele>138.6</ele>
        <time>2017-03-08T11:57:05Z</time>
      </trkpt>
      <trkpt lat="43.59412" lon="1.41748">
        <ele>138.6</ele>
        <time>2017-03-08T11:57:11Z</time>
      </trkpt>
      <trkpt lat="43.59412" lon="1.4178">
        <ele>138.7</ele>
        <time>2017-03-08T11:57:21Z</time>
      </trkpt>
      <trkpt lat="43.59416" lon="1.41818">
        <ele>138.9</ele>
        <time>2017-03-08T11:57:31Z</time>
      </trkpt>
      <trkpt lat="43.59415" lon="1.41855">
        <ele>138.9</ele>
        <time>2017-03-08T11:57:39Z</time>
      </trkpt>
      <trkpt lat="43.59416" lon="1.41891">
        <ele>138.9</ele>
        <time>2017-03-08T11:57:49Z</time>
      </trkpt>
      <trkpt lat="43.5942" lon="1.41919">
        <ele>138.9</ele>
        <time>2017-03-08T11:57:59Z</time>
      </trkpt>
      <trkpt lat="43.59417" lon="1.41949">
        <ele>138.9</ele>
        <time>2017-03-08T11:58:09Z</time>
      </trkpt>
      <trkpt lat="43.59417" lon="1.41954">
        <ele>138.9</ele>
        <time>2017-03-08T11:58:13Z</time>
      </trkpt>
      <trkpt lat="43.59416" lon="1.41959">
        <ele>138.9</ele>
        <time>2017-03-08T11:58:17Z</time>
      </trkpt>
      <trkpt lat="43.59416" lon="1.41962">
        <ele>138.9</ele>
        <time>2017-03-08T11:58:19Z</time>
      </trkpt>
      <trkpt lat="43.59387" lon="1.41943">
        <ele>138.9</ele>
        <time>2017-03-08T11:58:23Z</time>
      </trkpt>
      <trkpt lat="43.59384" lon="1.41969">
        <ele>138.9</ele>
        <time>2017-03-08T11:58:33Z</time>
      </trkpt>
      <trkpt lat="43.59386" lon="1.42001">
        <ele>138.9</ele>
        <time>2017-03-08T11:58:43Z</time>
      </trkpt>
      <trkpt lat="43.59382" lon="1.42037">
        <ele>138.9</ele>
        <time>2017-03-08T11:58:53Z</time>
      </trkpt>
      <trkpt lat="43.59387" lon="1.42072">
        <ele>138.9</ele>
        <time>2017-03-08T11:59:03Z</time>
      </trkpt>
      <trkpt lat="43.59382" lon="1.42097">
        <ele>138.7</ele>
        <time>2017-03-08T11:59:13Z</time>
      </trkpt>
      <trkpt lat="43.59372" lon="1.42136">
        <ele>138.1</ele>
        <time>2017-03-08T11:59:22Z</time>
      </trkpt>
      <trkpt lat="43.59357" lon="1.42155">
        <ele>137.9</ele>
        <time>2017-03-08T11:59:32Z</time>
      </trkpt>
      <trkpt lat="43.5934" lon="1.42184">
        <ele>137.9</ele>
        <time>2017-03-08T11:59:42Z</time>
      </trkpt>
      <trkpt lat="43.59321" lon="1.42217">
        <ele>137.9</ele>
        <time>2017-03-08T11:59:52Z</time>
      </trkpt>
      <trkpt lat="43.59303" lon="1.42248">
        <ele>137.9</ele>
        <time>2017-03-08T12:00:02Z</time>
      </trkpt>
      <trkpt lat="43.59278" lon="1.42272">
        <ele>137.9</ele>
        <time>2017-03-08T12:00:12Z</time>
      </trkpt>
      <trkpt lat="43.59252" lon="1.42296">
        <ele>137.9</ele>
        <time>2017-03-08T12:00:21Z</time>
      </trkpt>
      <trkpt lat="43.59229" lon="1.42316">
        <ele>137.9</ele>
        <time>2017-03-08T12:00:29Z</time>
      </trkpt>
      <trkpt lat="43.59207" lon="1.42325">
        <ele>137.9</ele>
        <time>2017-03-08T12:00:39Z</time>
      </trkpt>
      <trkpt lat="43.5918" lon="1.42338">
        <ele>138.2</ele>
        <time>2017-03-08T12:00:49Z</time>
      </trkpt>
      <trkpt lat="43.59152" lon="1.42351">
        <ele>138.9</ele>
        <time>2017-03-08T12:00:58Z</time>
      </trkpt>
      <trkpt lat="43.59125" lon="1.42352">
        <ele>138.9</ele>
        <time>2017-03-08T12:01:08Z</time>
      </trkpt>
      <trkpt lat="43.59099" lon="1.42362">
        <ele>138.9</ele>
        <time>2017-03-08T12:01:16Z</time>
      </trkpt>
      <trkpt lat="43.59075" lon="1.42363">
        <ele>138.9</ele>
        <time>2017-03-08T12:01:26Z</time>
      </trkpt>
      <trkpt lat="43.59049" lon="1.42356">
        <ele>138.9</ele>
        <time>2017-03-08T12:01:35Z</time>
      </trkpt>
      <trkpt lat="43.59022" lon="1.42348">
        <ele>138.9</ele>
        <time>2017-03-08T12:01:45Z</time>
      </trkpt>
      <trkpt lat="43.58995" lon="1.42348">
        <ele>138.9</ele>
        <time>2017-03-08T12:01:54Z</time>
      </trkpt>
      <trkpt lat="43.58967" lon="1.4235">
        <ele>138.9</ele>
        <time>2017-03-08T12:02:04Z</time>
      </trkpt>
      <trkpt lat="43.5894" lon="1.42339">
        <ele>138.9</ele>
        <time>2017-03-08T12:02:15Z</time>
      </trkpt>
      <trkpt lat="43.58913" lon="1.42335">
        <ele>138.9</ele>
        <time>2017-03-08T12:02:24Z</time>
      </trkpt>
      <trkpt lat="43.58886" lon="1.42324">
        <ele>138.9</ele>
        <time>2017-03-08T12:02:34Z</time>
      </trkpt>
      <trkpt lat="43.58859" lon="1.42331">
        <ele>138.9</ele>
        <time>2017-03-08T12:02:44Z</time>
      </trkpt>
      <trkpt lat="43.58833" lon="1.4232">
        <ele>138.9</ele>
        <time>2017-03-08T12:02:54Z</time>
      </trkpt>
      <trkpt lat="43.58809" lon="1.42323">
        <ele>138.9</ele>
        <time>2017-03-08T12:03:04Z</time>
      </trkpt>
      <trkpt lat="43.58784" lon="1.42321">
        <ele>138.9</ele>
        <time>2017-03-08T12:03:14Z</time>
      </trkpt>
      <trkpt lat="43.58757" lon="1.42318">
        <ele>138.9</ele>
        <time>2017-03-08T12:03:23Z</time>
      </trkpt>
      <trkpt lat="43.58728" lon="1.42309">
        <ele>138.9</ele>
        <time>2017-03-08T12:03:33Z</time>
      </trkpt>
      <trkpt lat="43.587" lon="1.42303">
        <ele>138.9</ele>
        <time>2017-03-08T12:03:43Z</time>
      </trkpt>
      <trkpt lat="43.58676" lon="1.42299">
        <ele>138.9</ele>
        <time>2017-03-08T12:03:53Z</time>
      </trkpt>
      <trkpt lat="43.58648" lon="1.42296">
        <ele>138.9</ele>
        <time>2017-03-08T12:04:01Z</time>
      </trkpt>
      <trkpt lat="43.58621" lon="1.42282">
        <ele>138.9</ele>
        <time>2017-03-08T12:04:10Z</time>
      </trkpt>
      <trkpt lat="43.58598" lon="1.42282">
        <ele>138.9</ele>
        <time>2017-03-08T12:04:20Z</time>
      </trkpt>
      <trkpt lat="43.58572" lon="1.42278">
        <ele>139.1</ele>
        <time>2017-03-08T12:04:30Z</time>
      </trkpt>
      <trkpt lat="43.58547" lon="1.4227">
        <ele>139.7</ele>
        <time>2017-03-08T12:04:40Z</time>
      </trkpt>
      <trkpt lat="43.58522" lon="1.42271">
        <ele>139.9</ele>
        <time>2017-03-08T12:04:50Z</time>
      </trkpt>
      <trkpt lat="43.58493" lon="1.42264">
        <ele>139.9</ele>
        <time>2017-03-08T12:05:00Z</time>
      </trkpt>
      <trkpt lat="43.58468" lon="1.42261">
        <ele>139.9</ele>
        <time>2017-03-08T12:05:10Z</time>
      </trkpt>
      <trkpt lat="43.58439" lon="1.42251">
        <ele>139.9</ele>
        <time>2017-03-08T12:05:20Z</time>
      </trkpt>
      <trkpt lat="43.58411" lon="1.42247">
        <ele>139.9</ele>
        <time>2017-03-08T12:05:29Z</time>
      </trkpt>
      <trkpt lat="43.58382" lon="1.4224">
        <ele>139.9</ele>
        <time>2017-03-08T12:05:39Z</time>
      </trkpt>
      <trkpt lat="43.58355" lon="1.42233">
        <ele>139.9</ele>
        <time>2017-03-08T12:05:49Z</time>
      </trkpt>
      <trkpt lat="43.58329" lon="1.42232">
        <ele>139.9</ele>
        <time>2017-03-08T12:05:59Z</time>
      </trkpt>
      <trkpt lat="43.58301" lon="1.42228">
        <ele>139.9</ele>
        <time>2017-03-08T12:06:09Z</time>
      </trkpt>
      <trkpt lat="43.58277" lon="1.4222">
        <ele>139.9</ele>
        <time>2017-03-08T12:06:19Z</time>
      </trkpt>
      <trkpt lat="43.58257" lon="1.42217">
        <ele>139.9</ele>
        <time>2017-03-08T12:06:29Z</time>
      </trkpt>
      <trkpt lat="43.5824" lon="1.42222">
        <ele>139.9</ele>
        <time>2017-03-08T12:06:43Z</time>
      </trkpt>
      <trkpt lat="43.58226" lon="1.42193">
        <ele>139.9</ele>
        <time>2017-03-08T12:06:55Z</time>
      </trkpt>
      <trkpt lat="43.5821" lon="1.42211">
        <ele>140.5</ele>
        <time>2017-03-08T12:07:05Z</time>
      </trkpt>
      <trkpt lat="43.58195" lon="1.42253">
        <ele>140.8</ele>
        <time>2017-03-08T12:07:12Z</time>
      </trkpt>
      <trkpt lat="43.58191" lon="1.42291">
        <ele>140.8</ele>
        <time>2017-03-08T12:07:15Z</time>
      </trkpt>
      <trkpt lat="43.58176" lon="1.42324">
        <ele>140.9</ele>
        <time>2017-03-08T12:07:25Z</time>
      </trkpt>
      <trkpt lat="43.58159" lon="1.42359">
        <ele>140.9</ele>
        <time>2017-03-08T12:07:33Z</time>
      </trkpt>
      <trkpt lat="43.58154" lon="1.42397">
        <ele>140.9</ele>
        <time>2017-03-08T12:07:40Z</time>
      </trkpt>
      <trkpt lat="43.58148" lon="1.42421">
        <ele>140.9</ele>
        <time>2017-03-08T12:07:51Z</time>
      </trkpt>
      <trkpt lat="43.58134" lon="1.42455">
        <ele>140.9</ele>
        <time>2017-03-08T12:07:58Z</time>
      </trkpt>
      <trkpt lat="43.58122" lon="1.4248">
        <ele>140.9</ele>
        <time>2017-03-08T12:08:14Z</time>
      </trkpt>
      <trkpt lat="43.58111" lon="1.42491">
        <ele>140.9</ele>
        <time>2017-03-08T12:08:34Z</time>
      </trkpt>
      <trkpt lat="43.58102" lon="1.42514">
        <ele>140.9</ele>
        <time>2017-03-08T12:08:45Z</time>
      </trkpt>
      <trkpt lat="43.58072" lon="1.42515">
        <ele>140.9</ele>
        <time>2017-03-08T12:08:54Z</time>
      </trkpt>
      <trkpt lat="43.58046" lon="1.42528">
        <ele>140.9</ele>
        <time>2017-03-08T12:09:03Z</time>
      </trkpt>
      <trkpt lat="43.5803" lon="1.42542">
        <ele>140.9</ele>
        <time>2017-03-08T12:09:13Z</time>
      </trkpt>
      <trkpt lat="43.58033" lon="1.42582">
        <ele>140.9</ele>
        <time>2017-03-08T12:09:23Z</time>
      </trkpt>
      <trkpt lat="43.58018" lon="1.42617">
        <ele>140.9</ele>
        <time>2017-03-08T12:09:32Z</time>
      </trkpt>
      <trkpt lat="43.58002" lon="1.42652">
        <ele>140.9</ele>
        <time>2017-03-08T12:09:39Z</time>
      </trkpt>
      <trkpt lat="43.57991" lon="1.42673">
        <ele>140.9</ele>
        <time>2017-03-08T12:09:49Z</time>
      </trkpt>
      <trkpt lat="43.57965" lon="1.4269">
        <ele>140.9</ele>
        <time>2017-03-08T12:09:58Z</time>
      </trkpt>
      <trkpt lat="43.57941" lon="1.42708">
        <ele>140.9</ele>
        <time>2017-03-08T12:10:07Z</time>
      </trkpt>
      <trkpt lat="43.57915" lon="1.42712">
        <ele>140.8</ele>
        <time>2017-03-08T12:10:17Z</time>
      </trkpt>
      <trkpt lat="43.57887" lon="1.42718">
        <ele>140.3</ele>
        <time>2017-03-08T12:10:26Z</time>
      </trkpt>
      <trkpt lat="43.57862" lon="1.42719">
        <ele>139.8</ele>
        <time>2017-03-08T12:10:36Z</time>
      </trkpt>
      <trkpt lat="43.5784" lon="1.42724">
        <ele>139.3</ele>
        <time>2017-03-08T12:10:46Z</time>
      </trkpt>
      <trkpt lat="43.57812" lon="1.42731">
        <ele>139</ele>
        <time>2017-03-08T12:10:56Z</time>
      </trkpt>
      <trkpt lat="43.5779" lon="1.42742">
        <ele>138.9</ele>
        <time>2017-03-08T12:11:08Z</time>
      </trkpt>
      <trkpt lat="43.57771" lon="1.42771">
        <ele>138.7</ele>
        <time>2017-03-08T12:11:17Z</time>
      </trkpt>
      <trkpt lat="43.57746" lon="1.42763">
        <ele>137.6</ele>
        <time>2017-03-08T12:11:27Z</time>
      </trkpt>
      <trkpt lat="43.57724" lon="1.42763">
        <ele>137.1</ele>
        <time>2017-03-08T12:11:37Z</time>
      </trkpt>
      <trkpt lat="43.57696" lon="1.42778">
        <ele>136</ele>
        <time>2017-03-08T12:11:44Z</time>
      </trkpt>
      <trkpt lat="43.57666" lon="1.42769">
        <ele>135.6</ele>
        <time>2017-03-08T12:11:52Z</time>
      </trkpt>
      <trkpt lat="43.57644" lon="1.42746">
        <ele>135.6</ele>
        <time>2017-03-08T12:12:01Z</time>
      </trkpt>
      <trkpt lat="43.57616" lon="1.42743">
        <ele>135.6</ele>
        <time>2017-03-08T12:12:09Z</time>
      </trkpt>
      <trkpt lat="43.57589" lon="1.42751">
        <ele>136.3</ele>
        <time>2017-03-08T12:12:19Z</time>
      </trkpt>
      <trkpt lat="43.57562" lon="1.42755">
        <ele>139.4</ele>
        <time>2017-03-08T12:12:29Z</time>
      </trkpt>
      <trkpt lat="43.57534" lon="1.42758">
        <ele>140.6</ele>
        <time>2017-03-08T12:12:39Z</time>
      </trkpt>
      <trkpt lat="43.57509" lon="1.42777">
        <ele>140.7</ele>
        <time>2017-03-08T12:12:47Z</time>
      </trkpt>
      <trkpt lat="43.57484" lon="1.4279">
        <ele>140.8</ele>
        <time>2017-03-08T12:12:57Z</time>
      </trkpt>
      <trkpt lat="43.57458" lon="1.42801">
        <ele>140.8</ele>
        <time>2017-03-08T12:13:07Z</time>
      </trkpt>
      <trkpt lat="43.57433" lon="1.42808">
        <ele>140.7</ele>
        <time>2017-03-08T12:13:17Z</time>
      </trkpt>
      <trkpt lat="43.57408" lon="1.42825">
        <ele>140.4</ele>
        <time>2017-03-08T12:13:26Z</time>
      </trkpt>
      <trkpt lat="43.5738" lon="1.42837">
        <ele>140</ele>
        <time>2017-03-08T12:13:35Z</time>
      </trkpt>
      <trkpt lat="43.57354" lon="1.42847">
        <ele>139.9</ele>
        <time>2017-03-08T12:13:45Z</time>
      </trkpt>
      <trkpt lat="43.5733" lon="1.4285">
        <ele>139.9</ele>
        <time>2017-03-08T12:13:55Z</time>
      </trkpt>
      <trkpt lat="43.57304" lon="1.42854">
        <ele>139.9</ele>
        <time>2017-03-08T12:14:05Z</time>
      </trkpt>
      <trkpt lat="43.57278" lon="1.42859">
        <ele>139.9</ele>
        <time>2017-03-08T12:14:15Z</time>
      </trkpt>
      <trkpt lat="43.5725" lon="1.42863">
        <ele>139.9</ele>
        <time>2017-03-08T12:14:25Z</time>
      </trkpt>
      <trkpt lat="43.57224" lon="1.42863">
        <ele>139.9</ele>
        <time>2017-03-08T12:14:35Z</time>
      </trkpt>
      <trkpt lat="43.57195" lon="1.42857">
        <ele>139.9</ele>
        <time>2017-03-08T12:14:45Z</time>
      </trkpt>
      <trkpt lat="43.57169" lon="1.42861">
        <ele>139.9</ele>
        <time>2017-03-08T12:14:55Z</time>
      </trkpt>
      <trkpt lat="43.5714" lon="1.42862">
        <ele>140</ele>
        <time>2017-03-08T12:15:05Z</time>
      </trkpt>
      <trkpt lat="43.5711" lon="1.4286">
        <ele>140.7</ele>
        <time>2017-03-08T12:15:15Z</time>
      </trkpt>
      <trkpt lat="43.57084" lon="1.42871">
        <ele>140.9</ele>
        <time>2017-03-08T12:15:25Z</time>
      </trkpt>
      <trkpt lat="43.57071" lon="1.42896">
        <ele>141.8</ele>
        <time>2017-03-08T12:15:35Z</time>
      </trkpt>
      <trkpt lat="43.57075" lon="1.42933">
        <ele>141.9</ele>
        <time>2017-03-08T12:15:45Z</time>
      </trkpt>
      <trkpt lat="43.57089" lon="1.42956">
        <ele>141.9</ele>
        <time>2017-03-08T12:15:55Z</time>
      </trkpt>
      <trkpt lat="43.5707" lon="1.42962">
        <ele>142.1</ele>
        <time>2017-03-08T12:16:08Z</time>
      </trkpt>
      <trkpt lat="43.57041" lon="1.42961">
        <ele>142.6</ele>
        <time>2017-03-08T12:16:16Z</time>
      </trkpt>
      <trkpt lat="43.5702" lon="1.42966">
        <ele>142.9</ele>
        <time>2017-03-08T12:16:25Z</time>
      </trkpt>
      <trkpt lat="43.56989" lon="1.4297">
        <ele>143.1</ele>
        <time>2017-03-08T12:16:34Z</time>
      </trkpt>
      <trkpt lat="43.56962" lon="1.42974">
        <ele>142.9</ele>
        <time>2017-03-08T12:16:43Z</time>
      </trkpt>
      <trkpt lat="43.56934" lon="1.42974">
        <ele>142.7</ele>
        <time>2017-03-08T12:16:52Z</time>
      </trkpt>
      <trkpt lat="43.56908" lon="1.42973">
        <ele>142.7</ele>
        <time>2017-03-08T12:17:02Z</time>
      </trkpt>
      <trkpt lat="43.56882" lon="1.42969">
        <ele>140.7</ele>
        <time>2017-03-08T12:17:12Z</time>
      </trkpt>
      <trkpt lat="43.56854" lon="1.42964">
        <ele>140</ele>
        <time>2017-03-08T12:17:22Z</time>
      </trkpt>
      <trkpt lat="43.56828" lon="1.42957">
        <ele>140</ele>
        <time>2017-03-08T12:17:32Z</time>
      </trkpt>
      <trkpt lat="43.56799" lon="1.42945">
        <ele>140</ele>
        <time>2017-03-08T12:17:42Z</time>
      </trkpt>
      <trkpt lat="43.56783" lon="1.42938">
        <ele>140.1</ele>
        <time>2017-03-08T12:17:47Z</time>
      </trkpt>
      <trkpt lat="43.5677" lon="1.42929">
        <ele>140.3</ele>
        <time>2017-03-08T12:17:52Z</time>
      </trkpt>
      <trkpt lat="43.56759" lon="1.42923">
        <ele>140.4</ele>
        <time>2017-03-08T12:17:56Z</time>
      </trkpt>
      <trkpt lat="43.56751" lon="1.42918">
        <ele>140.5</ele>
        <time>2017-03-08T12:17:59Z</time>
      </trkpt>
      <trkpt lat="43.56742" lon="1.42913">
        <ele>140.5</ele>
        <time>2017-03-08T12:18:03Z</time>
      </trkpt>
      <trkpt lat="43.56733" lon="1.42907">
        <ele>140.6</ele>
        <time>2017-03-08T12:18:06Z</time>
      </trkpt>
      <trkpt lat="43.56724" lon="1.429">
        <ele>140.6</ele>
        <time>2017-03-08T12:18:10Z</time>
      </trkpt>
      <trkpt lat="43.56716" lon="1.42894">
        <ele>140.6</ele>
        <time>2017-03-08T12:18:13Z</time>
      </trkpt>
      <trkpt lat="43.56706" lon="1.42886">
        <ele>140.7</ele>
        <time>2017-03-08T12:18:17Z</time>
      </trkpt>
      <trkpt lat="43.56693" lon="1.42876">
        <ele>140.9</ele>
        <time>2017-03-08T12:18:22Z</time>
      </trkpt>
      <trkpt lat="43.56681" lon="1.42864">
        <ele>140.9</ele>
        <time>2017-03-08T12:18:28Z</time>
      </trkpt>
      <trkpt lat="43.56671" lon="1.42854">
        <ele>140.9</ele>
        <time>2017-03-08T12:18:33Z</time>
      </trkpt>
      <trkpt lat="43.56663" lon="1.42848">
        <ele>140.9</ele>
        <time>2017-03-08T12:18:36Z</time>
      </trkpt>
      <trkpt lat="43.56648" lon="1.42836">
        <ele>140.9</ele>
        <time>2017-03-08T12:18:42Z</time>
      </trkpt>
      <trkpt lat="43.56636" lon="1.42828">
        <ele>140.9</ele>
        <time>2017-03-08T12:18:46Z</time>
      </trkpt>
      <trkpt lat="43.56631" lon="1.42824">
        <ele>140.9</ele>
        <time>2017-03-08T12:18:49Z</time>
      </trkpt>
      <trkpt lat="43.56626" lon="1.42821">
        <ele>140.9</ele>
        <time>2017-03-08T12:18:51Z</time>
      </trkpt>
      <trkpt lat="43.56617" lon="1.42815">
        <ele>140.9</ele>
        <time>2017-03-08T12:18:54Z</time>
      </trkpt>
      <trkpt lat="43.56613" lon="1.42812">
        <ele>140.9</ele>
        <time>2017-03-08T12:18:56Z</time>
      </trkpt>
      <trkpt lat="43.56607" lon="1.42809">
        <ele>140.9</ele>
        <time>2017-03-08T12:18:58Z</time>
      </trkpt>
      <trkpt lat="43.56601" lon="1.42805">
        <ele>140.9</ele>
        <time>2017-03-08T12:19:00Z</time>
      </trkpt>
      <trkpt lat="43.56591" lon="1.428">
        <ele>140.9</ele>
        <time>2017-03-08T12:19:04Z</time>
      </trkpt>
      <trkpt lat="43.56579" lon="1.42794">
        <ele>140.9</ele>
        <time>2017-03-08T12:19:09Z</time>
      </trkpt>
      <trkpt lat="43.56569" lon="1.4279">
        <ele>140.9</ele>
        <time>2017-03-08T12:19:13Z</time>
      </trkpt>
      <trkpt lat="43.56559" lon="1.42786">
        <ele>140.9</ele>
        <time>2017-03-08T12:19:16Z</time>
      </trkpt>
      <trkpt lat="43.56546" lon="1.42781">
        <ele>140.9</ele>
        <time>2017-03-08T12:19:21Z</time>
      </trkpt>
      <trkpt lat="43.56536" lon="1.42777">
        <ele>140.9</ele>
        <time>2017-03-08T12:19:24Z</time>
      </trkpt>
      <trkpt lat="43.56525" lon="1.42774">
        <ele>140.9</ele>
        <time>2017-03-08T12:19:29Z</time>
      </trkpt>
      <trkpt lat="43.56511" lon="1.4277">
        <ele>140.9</ele>
        <time>2017-03-08T12:19:34Z</time>
      </trkpt>
      <trkpt lat="43.56496" lon="1.42766">
        <ele>140.9</ele>
        <time>2017-03-08T12:19:39Z</time>
      </trkpt>
      <trkpt lat="43.56484" lon="1.42764">
        <ele>140.9</ele>
        <time>2017-03-08T12:19:43Z</time>
      </trkpt>
      <trkpt lat="43.56467" lon="1.42762">
        <ele>140.9</ele>
        <time>2017-03-08T12:19:49Z</time>
      </trkpt>
      <trkpt lat="43.56458" lon="1.4276">
        <ele>140.9</ele>
        <time>2017-03-08T12:19:53Z</time>
      </trkpt>
      <trkpt lat="43.56446" lon="1.42759">
        <ele>140.9</ele>
        <time>2017-03-08T12:19:57Z</time>
      </trkpt>
      <trkpt lat="43.56437" lon="1.42758">
        <ele>140.9</ele>
        <time>2017-03-08T12:20:00Z</time>
      </trkpt>
      <trkpt lat="43.56425" lon="1.42754">
        <ele>140.9</ele>
        <time>2017-03-08T12:20:05Z</time>
      </trkpt>
      <trkpt lat="43.5641" lon="1.42755">
        <ele>140.9</ele>
        <time>2017-03-08T12:20:10Z</time>
      </trkpt>
      <trkpt lat="43.564" lon="1.42755">
        <ele>140.9</ele>
        <time>2017-03-08T12:20:14Z</time>
      </trkpt>
      <trkpt lat="43.56391" lon="1.42755">
        <ele>140.9</ele>
        <time>2017-03-08T12:20:17Z</time>
      </trkpt>
      <trkpt lat="43.5638" lon="1.42756">
        <ele>140.9</ele>
        <time>2017-03-08T12:20:22Z</time>
      </trkpt>
      <trkpt lat="43.56369" lon="1.42758">
        <ele>140.9</ele>
        <time>2017-03-08T12:20:26Z</time>
      </trkpt>
      <trkpt lat="43.56358" lon="1.42759">
        <ele>140.9</ele>
        <time>2017-03-08T12:20:30Z</time>
      </trkpt>
      <trkpt lat="43.56347" lon="1.4276">
        <ele>140.9</ele>
        <time>2017-03-08T12:20:34Z</time>
      </trkpt>
      <trkpt lat="43.56331" lon="1.42762">
        <ele>140.9</ele>
        <time>2017-03-08T12:20:40Z</time>
      </trkpt>
      <trkpt lat="43.56319" lon="1.42764">
        <ele>140.9</ele>
        <time>2017-03-08T12:20:44Z</time>
      </trkpt>
      <trkpt lat="43.56309" lon="1.42768">
        <ele>140.9</ele>
        <time>2017-03-08T12:20:48Z</time>
      </trkpt>
      <trkpt lat="43.56295" lon="1.42773">
        <ele>140.9</ele>
        <time>2017-03-08T12:20:53Z</time>
      </trkpt>
      <trkpt lat="43.56286" lon="1.42775">
        <ele>140.9</ele>
        <time>2017-03-08T12:20:56Z</time>
      </trkpt>
      <trkpt lat="43.56282" lon="1.42778">
        <ele>140.9</ele>
        <time>2017-03-08T12:20:58Z</time>
      </trkpt>
      <trkpt lat="43.56275" lon="1.42779">
        <ele>140.9</ele>
        <time>2017-03-08T12:21:00Z</time>
      </trkpt>
      <trkpt lat="43.56264" lon="1.42782">
        <ele>140.9</ele>
        <time>2017-03-08T12:21:04Z</time>
      </trkpt>
      <trkpt lat="43.56252" lon="1.42792">
        <ele>140.9</ele>
        <time>2017-03-08T12:21:09Z</time>
      </trkpt>
      <trkpt lat="43.56246" lon="1.42792">
        <ele>140.9</ele>
        <time>2017-03-08T12:21:11Z</time>
      </trkpt>
      <trkpt lat="43.5624" lon="1.42795">
        <ele>140.9</ele>
        <time>2017-03-08T12:21:13Z</time>
      </trkpt>
      <trkpt lat="43.56236" lon="1.42797">
        <ele>140.9</ele>
        <time>2017-03-08T12:21:15Z</time>
      </trkpt>
      <trkpt lat="43.56223" lon="1.42805">
        <ele>140.9</ele>
        <time>2017-03-08T12:21:21Z</time>
      </trkpt>
      <trkpt lat="43.56209" lon="1.42811">
        <ele>140.9</ele>
        <time>2017-03-08T12:21:25Z</time>
      </trkpt>
      <trkpt lat="43.56194" lon="1.4282">
        <ele>141</ele>
        <time>2017-03-08T12:21:32Z</time>
      </trkpt>
      <trkpt lat="43.56186" lon="1.42826">
        <ele>141</ele>
        <time>2017-03-08T12:21:35Z</time>
      </trkpt>
      <trkpt lat="43.56177" lon="1.42834">
        <ele>141.3</ele>
        <time>2017-03-08T12:21:39Z</time>
      </trkpt>
      <trkpt lat="43.56166" lon="1.4284">
        <ele>141.6</ele>
        <time>2017-03-08T12:21:43Z</time>
      </trkpt>
      <trkpt lat="43.56156" lon="1.4285">
        <ele>141.8</ele>
        <time>2017-03-08T12:21:48Z</time>
      </trkpt>
      <trkpt lat="43.56144" lon="1.42859">
        <ele>141.9</ele>
        <time>2017-03-08T12:21:53Z</time>
      </trkpt>
      <trkpt lat="43.56132" lon="1.42871">
        <ele>141.9</ele>
        <time>2017-03-08T12:21:58Z</time>
      </trkpt>
      <trkpt lat="43.56127" lon="1.42879">
        <ele>141.9</ele>
        <time>2017-03-08T12:22:00Z</time>
      </trkpt>
      <trkpt lat="43.56123" lon="1.42883">
        <ele>141.9</ele>
        <time>2017-03-08T12:22:02Z</time>
      </trkpt>
      <trkpt lat="43.5611" lon="1.42893">
        <ele>141.9</ele>
        <time>2017-03-08T12:22:07Z</time>
      </trkpt>
      <trkpt lat="43.5609" lon="1.42916">
        <ele>142.3</ele>
        <time>2017-03-08T12:22:17Z</time>
      </trkpt>
      <trkpt lat="43.56083" lon="1.42922">
        <ele>142.5</ele>
        <time>2017-03-08T12:22:20Z</time>
      </trkpt>
      <trkpt lat="43.5608" lon="1.42927">
        <ele>142.5</ele>
        <time>2017-03-08T12:22:22Z</time>
      </trkpt>
      <trkpt lat="43.56067" lon="1.42947">
        <ele>142.5</ele>
        <time>2017-03-08T12:22:29Z</time>
      </trkpt>
      <trkpt lat="43.56059" lon="1.42958">
        <ele>142.6</ele>
        <time>2017-03-08T12:22:33Z</time>
      </trkpt>
      <trkpt lat="43.56046" lon="1.42975">
        <ele>142.6</ele>
        <time>2017-03-08T12:22:39Z</time>
      </trkpt>
      <trkpt lat="43.56036" lon="1.4299">
        <ele>142.6</ele>
        <time>2017-03-08T12:22:44Z</time>
      </trkpt>
      <trkpt lat="43.56026" lon="1.43004">
        <ele>142.5</ele>
        <time>2017-03-08T12:22:50Z</time>
      </trkpt>
      <trkpt lat="43.56017" lon="1.43016">
        <ele>142.4</ele>
        <time>2017-03-08T12:22:53Z</time>
      </trkpt>
      <trkpt lat="43.56005" lon="1.43031">
        <ele>142.4</ele>
        <time>2017-03-08T12:22:59Z</time>
      </trkpt>
      <trkpt lat="43.55991" lon="1.43045">
        <ele>142.4</ele>
        <time>2017-03-08T12:23:05Z</time>
      </trkpt>
      <trkpt lat="43.55978" lon="1.43058">
        <ele>142.4</ele>
        <time>2017-03-08T12:23:12Z</time>
      </trkpt>
      <trkpt lat="43.5597" lon="1.43066">
        <ele>142.3</ele>
        <time>2017-03-08T12:23:16Z</time>
      </trkpt>
      <trkpt lat="43.55958" lon="1.43078">
        <ele>142.3</ele>
        <time>2017-03-08T12:23:21Z</time>
      </trkpt>
      <trkpt lat="43.55949" lon="1.43086">
        <ele>142.3</ele>
        <time>2017-03-08T12:23:25Z</time>
      </trkpt>
      <trkpt lat="43.55937" lon="1.43093">
        <ele>142.3</ele>
        <time>2017-03-08T12:23:30Z</time>
      </trkpt>
      <trkpt lat="43.55929" lon="1.43101">
        <ele>142.3</ele>
        <time>2017-03-08T12:23:34Z</time>
      </trkpt>
      <trkpt lat="43.55921" lon="1.43108">
        <ele>142.3</ele>
        <time>2017-03-08T12:23:37Z</time>
      </trkpt>
      <trkpt lat="43.55913" lon="1.43114">
        <ele>142.3</ele>
        <time>2017-03-08T12:23:40Z</time>
      </trkpt>
      <trkpt lat="43.55901" lon="1.43123">
        <ele>142.3</ele>
        <time>2017-03-08T12:23:44Z</time>
      </trkpt>
      <trkpt lat="43.55891" lon="1.43128">
        <ele>142.3</ele>
        <time>2017-03-08T12:23:47Z</time>
      </trkpt>
      <trkpt lat="43.5588" lon="1.43133">
        <ele>142.4</ele>
        <time>2017-03-08T12:23:52Z</time>
      </trkpt>
      <trkpt lat="43.55869" lon="1.43137">
        <ele>142.4</ele>
        <time>2017-03-08T12:23:55Z</time>
      </trkpt>
      <trkpt lat="43.5586" lon="1.4314">
        <ele>142.4</ele>
        <time>2017-03-08T12:23:59Z</time>
      </trkpt>
      <trkpt lat="43.5585" lon="1.43145">
        <ele>142.4</ele>
        <time>2017-03-08T12:24:02Z</time>
      </trkpt>
      <trkpt lat="43.55833" lon="1.43154">
        <ele>142.4</ele>
        <time>2017-03-08T12:24:06Z</time>
      </trkpt>
      <trkpt lat="43.55825" lon="1.43162">
        <ele>142.4</ele>
        <time>2017-03-08T12:24:09Z</time>
      </trkpt>
      <trkpt lat="43.55835" lon="1.43158">
        <ele>142.4</ele>
        <time>2017-03-08T12:24:22Z</time>
      </trkpt>
      <trkpt lat="43.55846" lon="1.43154">
        <ele>142.5</ele>
        <time>2017-03-08T12:24:25Z</time>
      </trkpt>
      <trkpt lat="43.5586" lon="1.43148">
        <ele>142.6</ele>
        <time>2017-03-08T12:24:31Z</time>
      </trkpt>
      <trkpt lat="43.55871" lon="1.43142">
        <ele>142.6</ele>
        <time>2017-03-08T12:24:35Z</time>
      </trkpt>
      <trkpt lat="43.5588" lon="1.43137">
        <ele>142.6</ele>
        <time>2017-03-08T12:24:39Z</time>
      </trkpt>
      <trkpt lat="43.5589" lon="1.43129">
        <ele>142.6</ele>
        <time>2017-03-08T12:24:43Z</time>
      </trkpt>
      <trkpt lat="43.559" lon="1.43123">
        <ele>142.6</ele>
        <time>2017-03-08T12:24:47Z</time>
      </trkpt>
      <trkpt lat="43.55911" lon="1.43114">
        <ele>142.6</ele>
        <time>2017-03-08T12:24:51Z</time>
      </trkpt>
      <trkpt lat="43.55926" lon="1.43104">
        <ele>142.6</ele>
        <time>2017-03-08T12:24:58Z</time>
      </trkpt>
      <trkpt lat="43.55937" lon="1.43093">
        <ele>142.6</ele>
        <time>2017-03-08T12:25:03Z</time>
      </trkpt>
      <trkpt lat="43.55947" lon="1.43086">
        <ele>142.5</ele>
        <time>2017-03-08T12:25:07Z</time>
      </trkpt>
      <trkpt lat="43.55957" lon="1.43078">
        <ele>142.4</ele>
        <time>2017-03-08T12:25:11Z</time>
      </trkpt>
      <trkpt lat="43.55966" lon="1.43069">
        <ele>142.4</ele>
        <time>2017-03-08T12:25:16Z</time>
      </trkpt>
      <trkpt lat="43.55973" lon="1.43062">
        <ele>142.4</ele>
        <time>2017-03-08T12:25:20Z</time>
      </trkpt>
      <trkpt lat="43.5598" lon="1.43054">
        <ele>142.4</ele>
        <time>2017-03-08T12:25:23Z</time>
      </trkpt>
      <trkpt lat="43.55987" lon="1.43045">
        <ele>142.4</ele>
        <time>2017-03-08T12:25:26Z</time>
      </trkpt>
      <trkpt lat="43.55994" lon="1.43036">
        <ele>142.4</ele>
        <time>2017-03-08T12:25:30Z</time>
      </trkpt>
      <trkpt lat="43.56005" lon="1.43025">
        <ele>142.4</ele>
        <time>2017-03-08T12:25:34Z</time>
      </trkpt>
      <trkpt lat="43.56017" lon="1.43014">
        <ele>142.4</ele>
        <time>2017-03-08T12:25:40Z</time>
      </trkpt>
      <trkpt lat="43.56029" lon="1.42999">
        <ele>142.3</ele>
        <time>2017-03-08T12:25:46Z</time>
      </trkpt>
      <trkpt lat="43.5605" lon="1.42975">
        <ele>142.2</ele>
        <time>2017-03-08T12:25:56Z</time>
      </trkpt>
      <trkpt lat="43.5606" lon="1.42961">
        <ele>142.2</ele>
        <time>2017-03-08T12:26:01Z</time>
      </trkpt>
      <trkpt lat="43.56068" lon="1.42952">
        <ele>142.2</ele>
        <time>2017-03-08T12:26:05Z</time>
      </trkpt>
      <trkpt lat="43.5608" lon="1.42937">
        <ele>142.2</ele>
        <time>2017-03-08T12:26:11Z</time>
      </trkpt>
      <trkpt lat="43.56088" lon="1.42927">
        <ele>142.2</ele>
        <time>2017-03-08T12:26:16Z</time>
      </trkpt>
      <trkpt lat="43.56109" lon="1.42908">
        <ele>142.3</ele>
        <time>2017-03-08T12:26:26Z</time>
      </trkpt>
      <trkpt lat="43.5613" lon="1.42882">
        <ele>142.6</ele>
        <time>2017-03-08T12:26:36Z</time>
      </trkpt>
      <trkpt lat="43.5615" lon="1.42865">
        <ele>143</ele>
        <time>2017-03-08T12:26:46Z</time>
      </trkpt>
      <trkpt lat="43.56174" lon="1.42846">
        <ele>143.2</ele>
        <time>2017-03-08T12:26:55Z</time>
      </trkpt>
      <trkpt lat="43.56184" lon="1.42834">
        <ele>143.2</ele>
        <time>2017-03-08T12:27:01Z</time>
      </trkpt>
      <trkpt lat="43.56197" lon="1.42826">
        <ele>143.2</ele>
        <time>2017-03-08T12:27:06Z</time>
      </trkpt>
      <trkpt lat="43.56207" lon="1.42822">
        <ele>143.1</ele>
        <time>2017-03-08T12:27:11Z</time>
      </trkpt>
      <trkpt lat="43.56216" lon="1.42816">
        <ele>143.1</ele>
        <time>2017-03-08T12:27:14Z</time>
      </trkpt>
      <trkpt lat="43.56227" lon="1.4281">
        <ele>143.1</ele>
        <time>2017-03-08T12:27:18Z</time>
      </trkpt>
      <trkpt lat="43.56236" lon="1.42806">
        <ele>143</ele>
        <time>2017-03-08T12:27:21Z</time>
      </trkpt>
      <trkpt lat="43.56244" lon="1.42801">
        <ele>142.9</ele>
        <time>2017-03-08T12:27:26Z</time>
      </trkpt>
      <trkpt lat="43.56253" lon="1.42795">
        <ele>142.3</ele>
        <time>2017-03-08T12:27:30Z</time>
      </trkpt>
      <trkpt lat="43.56265" lon="1.42787">
        <ele>142</ele>
        <time>2017-03-08T12:27:35Z</time>
      </trkpt>
      <trkpt lat="43.56274" lon="1.42784">
        <ele>141.9</ele>
        <time>2017-03-08T12:27:38Z</time>
      </trkpt>
      <trkpt lat="43.56284" lon="1.4278">
        <ele>141.9</ele>
        <time>2017-03-08T12:27:42Z</time>
      </trkpt>
      <trkpt lat="43.5629" lon="1.42778">
        <ele>141.9</ele>
        <time>2017-03-08T12:27:44Z</time>
      </trkpt>
      <trkpt lat="43.56299" lon="1.42776">
        <ele>141.9</ele>
        <time>2017-03-08T12:27:47Z</time>
      </trkpt>
      <trkpt lat="43.56308" lon="1.42773">
        <ele>141.9</ele>
        <time>2017-03-08T12:27:50Z</time>
      </trkpt>
      <trkpt lat="43.56319" lon="1.4277">
        <ele>141.9</ele>
        <time>2017-03-08T12:27:54Z</time>
      </trkpt>
      <trkpt lat="43.56329" lon="1.42768">
        <ele>141.8</ele>
        <time>2017-03-08T12:27:58Z</time>
      </trkpt>
      <trkpt lat="43.56333" lon="1.42768">
        <ele>141.3</ele>
        <time>2017-03-08T12:28:01Z</time>
      </trkpt>
      <trkpt lat="43.56338" lon="1.42765">
        <ele>141.3</ele>
        <time>2017-03-08T12:28:04Z</time>
      </trkpt>
      <trkpt lat="43.56346" lon="1.42762">
        <ele>141</ele>
        <time>2017-03-08T12:28:06Z</time>
      </trkpt>
      <trkpt lat="43.56351" lon="1.42762">
        <ele>141</ele>
        <time>2017-03-08T12:28:08Z</time>
      </trkpt>
      <trkpt lat="43.56363" lon="1.42762">
        <ele>140.9</ele>
        <time>2017-03-08T12:28:12Z</time>
      </trkpt>
      <trkpt lat="43.56373" lon="1.42761">
        <ele>140.9</ele>
        <time>2017-03-08T12:28:17Z</time>
      </trkpt>
      <trkpt lat="43.56389" lon="1.4276">
        <ele>140.9</ele>
        <time>2017-03-08T12:28:22Z</time>
      </trkpt>
      <trkpt lat="43.56406" lon="1.4276">
        <ele>140.9</ele>
        <time>2017-03-08T12:28:29Z</time>
      </trkpt>
      <trkpt lat="43.56416" lon="1.4276">
        <ele>140.9</ele>
        <time>2017-03-08T12:28:34Z</time>
      </trkpt>
      <trkpt lat="43.56427" lon="1.42759">
        <ele>140.9</ele>
        <time>2017-03-08T12:28:39Z</time>
      </trkpt>
      <trkpt lat="43.56439" lon="1.42761">
        <ele>140.9</ele>
        <time>2017-03-08T12:28:43Z</time>
      </trkpt>
      <trkpt lat="43.56451" lon="1.42763">
        <ele>140.9</ele>
        <time>2017-03-08T12:28:47Z</time>
      </trkpt>
      <trkpt lat="43.56461" lon="1.42764">
        <ele>140.9</ele>
        <time>2017-03-08T12:28:50Z</time>
      </trkpt>
      <trkpt lat="43.56476" lon="1.42765">
        <ele>140.9</ele>
        <time>2017-03-08T12:28:57Z</time>
      </trkpt>
      <trkpt lat="43.56487" lon="1.42767">
        <ele>140.9</ele>
        <time>2017-03-08T12:29:01Z</time>
      </trkpt>
      <trkpt lat="43.56497" lon="1.42769">
        <ele>140.9</ele>
        <time>2017-03-08T12:29:06Z</time>
      </trkpt>
      <trkpt lat="43.56508" lon="1.42773">
        <ele>140.9</ele>
        <time>2017-03-08T12:29:11Z</time>
      </trkpt>
      <trkpt lat="43.56519" lon="1.42775">
        <ele>140.9</ele>
        <time>2017-03-08T12:29:15Z</time>
      </trkpt>
      <trkpt lat="43.56533" lon="1.42783">
        <ele>140.9</ele>
        <time>2017-03-08T12:29:26Z</time>
      </trkpt>
      <trkpt lat="43.56558" lon="1.42795">
        <ele>140.9</ele>
        <time>2017-03-08T12:29:36Z</time>
      </trkpt>
      <trkpt lat="43.5658" lon="1.42803">
        <ele>140.9</ele>
        <time>2017-03-08T12:29:46Z</time>
      </trkpt>
      <trkpt lat="43.56603" lon="1.42817">
        <ele>140.9</ele>
        <time>2017-03-08T12:29:56Z</time>
      </trkpt>
      <trkpt lat="43.56628" lon="1.42837">
        <ele>140.9</ele>
        <time>2017-03-08T12:30:06Z</time>
      </trkpt>
      <trkpt lat="43.56649" lon="1.42853">
        <ele>140.9</ele>
        <time>2017-03-08T12:30:17Z</time>
      </trkpt>
      <trkpt lat="43.56659" lon="1.4286">
        <ele>140.9</ele>
        <time>2017-03-08T12:30:22Z</time>
      </trkpt>
      <trkpt lat="43.56672" lon="1.42871">
        <ele>140.9</ele>
        <time>2017-03-08T12:30:28Z</time>
      </trkpt>
      <trkpt lat="43.56683" lon="1.42877">
        <ele>140.9</ele>
        <time>2017-03-08T12:30:32Z</time>
      </trkpt>
      <trkpt lat="43.56693" lon="1.42891">
        <ele>140.9</ele>
        <time>2017-03-08T12:30:37Z</time>
      </trkpt>
      <trkpt lat="43.56706" lon="1.42899">
        <ele>140.9</ele>
        <time>2017-03-08T12:30:43Z</time>
      </trkpt>
      <trkpt lat="43.56718" lon="1.42908">
        <ele>140.9</ele>
        <time>2017-03-08T12:30:47Z</time>
      </trkpt>
      <trkpt lat="43.56725" lon="1.4291">
        <ele>140.9</ele>
        <time>2017-03-08T12:30:49Z</time>
      </trkpt>
      <trkpt lat="43.5673" lon="1.42914">
        <ele>140.9</ele>
        <time>2017-03-08T12:30:51Z</time>
      </trkpt>
      <trkpt lat="43.56743" lon="1.42924">
        <ele>140.9</ele>
        <time>2017-03-08T12:30:57Z</time>
      </trkpt>
      <trkpt lat="43.56755" lon="1.4293">
        <ele>140.9</ele>
        <time>2017-03-08T12:31:01Z</time>
      </trkpt>
      <trkpt lat="43.56768" lon="1.42936">
        <ele>140.9</ele>
        <time>2017-03-08T12:31:07Z</time>
      </trkpt>
      <trkpt lat="43.56782" lon="1.42945">
        <ele>140.9</ele>
        <time>2017-03-08T12:31:13Z</time>
      </trkpt>
      <trkpt lat="43.56795" lon="1.42951">
        <ele>140.9</ele>
        <time>2017-03-08T12:31:19Z</time>
      </trkpt>
      <trkpt lat="43.56809" lon="1.42956">
        <ele>140.9</ele>
        <time>2017-03-08T12:31:25Z</time>
      </trkpt>
      <trkpt lat="43.56821" lon="1.42962">
        <ele>140.9</ele>
        <time>2017-03-08T12:31:29Z</time>
      </trkpt>
      <trkpt lat="43.56836" lon="1.42966">
        <ele>140.9</ele>
        <time>2017-03-08T12:31:35Z</time>
      </trkpt>
      <trkpt lat="43.56846" lon="1.42967">
        <ele>140.9</ele>
        <time>2017-03-08T12:31:38Z</time>
      </trkpt>
      <trkpt lat="43.5686" lon="1.42973">
        <ele>140.9</ele>
        <time>2017-03-08T12:31:43Z</time>
      </trkpt>
      <trkpt lat="43.56877" lon="1.42974">
        <ele>140.8</ele>
        <time>2017-03-08T12:31:50Z</time>
      </trkpt>
      <trkpt lat="43.56886" lon="1.42974">
        <ele>140.8</ele>
        <time>2017-03-08T12:31:53Z</time>
      </trkpt>
      <trkpt lat="43.56912" lon="1.42975">
        <ele>140.7</ele>
        <time>2017-03-08T12:32:03Z</time>
      </trkpt>
      <trkpt lat="43.56924" lon="1.42979">
        <ele>140.6</ele>
        <time>2017-03-08T12:32:08Z</time>
      </trkpt>
      <trkpt lat="43.56949" lon="1.42976">
        <ele>140.1</ele>
        <time>2017-03-08T12:32:15Z</time>
      </trkpt>
      <trkpt lat="43.56963" lon="1.42977">
        <ele>140</ele>
        <time>2017-03-08T12:32:20Z</time>
      </trkpt>
      <trkpt lat="43.56986" lon="1.42973">
        <ele>140</ele>
        <time>2017-03-08T12:32:27Z</time>
      </trkpt>
      <trkpt lat="43.56996" lon="1.42972">
        <ele>140</ele>
        <time>2017-03-08T12:32:31Z</time>
      </trkpt>
      <trkpt lat="43.57024" lon="1.42974">
        <ele>140</ele>
        <time>2017-03-08T12:32:40Z</time>
      </trkpt>
      <trkpt lat="43.57038" lon="1.4297">
        <ele>140</ele>
        <time>2017-03-08T12:32:46Z</time>
      </trkpt>
      <trkpt lat="43.57042" lon="1.42971">
        <ele>140</ele>
        <time>2017-03-08T12:32:48Z</time>
      </trkpt>
      <trkpt lat="43.57049" lon="1.4297">
        <ele>140.1</ele>
        <time>2017-03-08T12:32:51Z</time>
      </trkpt>
      <trkpt lat="43.57067" lon="1.42968">
        <ele>142.9</ele>
        <time>2017-03-08T12:33:01Z</time>
      </trkpt>
      <trkpt lat="43.57091" lon="1.42954">
        <ele>143.1</ele>
        <time>2017-03-08T12:33:11Z</time>
      </trkpt>
      <trkpt lat="43.57113" lon="1.42941">
        <ele>143.1</ele>
        <time>2017-03-08T12:33:21Z</time>
      </trkpt>
      <trkpt lat="43.57136" lon="1.42932">
        <ele>143.1</ele>
        <time>2017-03-08T12:33:31Z</time>
      </trkpt>
      <trkpt lat="43.5716" lon="1.42916">
        <ele>142</ele>
        <time>2017-03-08T12:33:41Z</time>
      </trkpt>
      <trkpt lat="43.57182" lon="1.42899">
        <ele>141.9</ele>
        <time>2017-03-08T12:33:51Z</time>
      </trkpt>
      <trkpt lat="43.57207" lon="1.42887">
        <ele>141.9</ele>
        <time>2017-03-08T12:34:01Z</time>
      </trkpt>
      <trkpt lat="43.57234" lon="1.42883">
        <ele>141.4</ele>
        <time>2017-03-08T12:34:11Z</time>
      </trkpt>
      <trkpt lat="43.57258" lon="1.42883">
        <ele>141.2</ele>
        <time>2017-03-08T12:34:21Z</time>
      </trkpt>
      <trkpt lat="43.57267" lon="1.42883">
        <ele>141.1</ele>
        <time>2017-03-08T12:34:24Z</time>
      </trkpt>
      <trkpt lat="43.57278" lon="1.42883">
        <ele>140.9</ele>
        <time>2017-03-08T12:34:28Z</time>
      </trkpt>
      <trkpt lat="43.57287" lon="1.4288">
        <ele>140.7</ele>
        <time>2017-03-08T12:34:31Z</time>
      </trkpt>
      <trkpt lat="43.57301" lon="1.42874">
        <ele>140.2</ele>
        <time>2017-03-08T12:34:36Z</time>
      </trkpt>
      <trkpt lat="43.5731" lon="1.42875">
        <ele>139.8</ele>
        <time>2017-03-08T12:34:40Z</time>
      </trkpt>
      <trkpt lat="43.57324" lon="1.42872">
        <ele>139.5</ele>
        <time>2017-03-08T12:34:44Z</time>
      </trkpt>
      <trkpt lat="43.57334" lon="1.42868">
        <ele>139.5</ele>
        <time>2017-03-08T12:34:48Z</time>
      </trkpt>
      <trkpt lat="43.5734" lon="1.42865">
        <ele>139.5</ele>
        <time>2017-03-08T12:34:51Z</time>
      </trkpt>
      <trkpt lat="43.57346" lon="1.42864">
        <ele>139.5</ele>
        <time>2017-03-08T12:34:53Z</time>
      </trkpt>
      <trkpt lat="43.57356" lon="1.42863">
        <ele>139.5</ele>
        <time>2017-03-08T12:34:57Z</time>
      </trkpt>
      <trkpt lat="43.57366" lon="1.42861">
        <ele>139.5</ele>
        <time>2017-03-08T12:35:00Z</time>
      </trkpt>
      <trkpt lat="43.57379" lon="1.42854">
        <ele>139.5</ele>
        <time>2017-03-08T12:35:07Z</time>
      </trkpt>
      <trkpt lat="43.57388" lon="1.4285">
        <ele>139.5</ele>
        <time>2017-03-08T12:35:11Z</time>
      </trkpt>
      <trkpt lat="43.57399" lon="1.42846">
        <ele>139.5</ele>
        <time>2017-03-08T12:35:15Z</time>
      </trkpt>
      <trkpt lat="43.57407" lon="1.42843">
        <ele>139.5</ele>
        <time>2017-03-08T12:35:19Z</time>
      </trkpt>
      <trkpt lat="43.57418" lon="1.42836">
        <ele>139.5</ele>
        <time>2017-03-08T12:35:23Z</time>
      </trkpt>
      <trkpt lat="43.57427" lon="1.42834">
        <ele>139.6</ele>
        <time>2017-03-08T12:35:27Z</time>
      </trkpt>
      <trkpt lat="43.57441" lon="1.42828">
        <ele>139.6</ele>
        <time>2017-03-08T12:35:31Z</time>
      </trkpt>
      <trkpt lat="43.57451" lon="1.42825">
        <ele>139.7</ele>
        <time>2017-03-08T12:35:36Z</time>
      </trkpt>
      <trkpt lat="43.57462" lon="1.42822">
        <ele>139.7</ele>
        <time>2017-03-08T12:35:40Z</time>
      </trkpt>
      <trkpt lat="43.57472" lon="1.42819">
        <ele>139.8</ele>
        <time>2017-03-08T12:35:44Z</time>
      </trkpt>
      <trkpt lat="43.57482" lon="1.42813">
        <ele>139.8</ele>
        <time>2017-03-08T12:35:48Z</time>
      </trkpt>
      <trkpt lat="43.57497" lon="1.42809">
        <ele>139.8</ele>
        <time>2017-03-08T12:35:53Z</time>
      </trkpt>
      <trkpt lat="43.57513" lon="1.42808">
        <ele>139.8</ele>
        <time>2017-03-08T12:36:01Z</time>
      </trkpt>
      <trkpt lat="43.57527" lon="1.42798">
        <ele>139.8</ele>
        <time>2017-03-08T12:36:06Z</time>
      </trkpt>
      <trkpt lat="43.57532" lon="1.42793">
        <ele>139.9</ele>
        <time>2017-03-08T12:36:08Z</time>
      </trkpt>
      <trkpt lat="43.57537" lon="1.42789">
        <ele>139.9</ele>
        <time>2017-03-08T12:36:10Z</time>
      </trkpt>
      <trkpt lat="43.57549" lon="1.42779">
        <ele>139.9</ele>
        <time>2017-03-08T12:36:16Z</time>
      </trkpt>
      <trkpt lat="43.57562" lon="1.42768">
        <ele>139.9</ele>
        <time>2017-03-08T12:36:23Z</time>
      </trkpt>
      <trkpt lat="43.57572" lon="1.42757">
        <ele>139.9</ele>
        <time>2017-03-08T12:36:28Z</time>
      </trkpt>
      <trkpt lat="43.576" lon="1.42746">
        <ele>140.1</ele>
        <time>2017-03-08T12:36:38Z</time>
      </trkpt>
      <trkpt lat="43.57614" lon="1.42741">
        <ele>140.2</ele>
        <time>2017-03-08T12:36:44Z</time>
      </trkpt>
      <trkpt lat="43.57628" lon="1.42741">
        <ele>140.2</ele>
        <time>2017-03-08T12:36:50Z</time>
      </trkpt>
      <trkpt lat="43.57643" lon="1.42741">
        <ele>140.3</ele>
        <time>2017-03-08T12:36:56Z</time>
      </trkpt>
      <trkpt lat="43.57652" lon="1.42743">
        <ele>140.3</ele>
        <time>2017-03-08T12:37:00Z</time>
      </trkpt>
      <trkpt lat="43.57662" lon="1.42743">
        <ele>140.3</ele>
        <time>2017-03-08T12:37:04Z</time>
      </trkpt>
      <trkpt lat="43.57671" lon="1.42744">
        <ele>140.3</ele>
        <time>2017-03-08T12:37:07Z</time>
      </trkpt>
      <trkpt lat="43.57686" lon="1.42746">
        <ele>140.3</ele>
        <time>2017-03-08T12:37:11Z</time>
      </trkpt>
      <trkpt lat="43.57697" lon="1.42748">
        <ele>140.3</ele>
        <time>2017-03-08T12:37:16Z</time>
      </trkpt>
      <trkpt lat="43.57708" lon="1.42748">
        <ele>140.3</ele>
        <time>2017-03-08T12:37:19Z</time>
      </trkpt>
      <trkpt lat="43.57717" lon="1.42747">
        <ele>140.2</ele>
        <time>2017-03-08T12:37:24Z</time>
      </trkpt>
      <trkpt lat="43.57745" lon="1.42736">
        <ele>140.1</ele>
        <time>2017-03-08T12:37:32Z</time>
      </trkpt>
      <trkpt lat="43.57763" lon="1.42742">
        <ele>139.4</ele>
        <time>2017-03-08T12:37:43Z</time>
      </trkpt>
      <trkpt lat="43.57792" lon="1.42738">
        <ele>138.6</ele>
        <time>2017-03-08T12:37:51Z</time>
      </trkpt>
      <trkpt lat="43.57816" lon="1.42733">
        <ele>137.9</ele>
        <time>2017-03-08T12:38:01Z</time>
      </trkpt>
      <trkpt lat="43.57826" lon="1.42731">
        <ele>137.6</ele>
        <time>2017-03-08T12:38:04Z</time>
      </trkpt>
      <trkpt lat="43.57836" lon="1.42726">
        <ele>137.6</ele>
        <time>2017-03-08T12:38:08Z</time>
      </trkpt>
      <trkpt lat="43.57849" lon="1.42722">
        <ele>137.6</ele>
        <time>2017-03-08T12:38:13Z</time>
      </trkpt>
      <trkpt lat="43.57861" lon="1.42717">
        <ele>137.6</ele>
        <time>2017-03-08T12:38:16Z</time>
      </trkpt>
      <trkpt lat="43.57874" lon="1.42697">
        <ele>137.5</ele>
        <time>2017-03-08T12:38:26Z</time>
      </trkpt>
      <trkpt lat="43.57889" lon="1.42696">
        <ele>137.6</ele>
        <time>2017-03-08T12:38:32Z</time>
      </trkpt>
      <trkpt lat="43.57906" lon="1.42697">
        <ele>137.8</ele>
        <time>2017-03-08T12:38:38Z</time>
      </trkpt>
      <trkpt lat="43.57922" lon="1.42696">
        <ele>138.9</ele>
        <time>2017-03-08T12:38:44Z</time>
      </trkpt>
      <trkpt lat="43.57932" lon="1.42696">
        <ele>138.9</ele>
        <time>2017-03-08T12:38:48Z</time>
      </trkpt>
      <trkpt lat="43.57942" lon="1.42694">
        <ele>138.9</ele>
        <time>2017-03-08T12:38:52Z</time>
      </trkpt>
      <trkpt lat="43.57948" lon="1.42698">
        <ele>138.9</ele>
        <time>2017-03-08T12:38:55Z</time>
      </trkpt>
      <trkpt lat="43.57956" lon="1.42695">
        <ele>138.9</ele>
        <time>2017-03-08T12:38:58Z</time>
      </trkpt>
      <trkpt lat="43.57968" lon="1.42691">
        <ele>138.9</ele>
        <time>2017-03-08T12:39:02Z</time>
      </trkpt>
      <trkpt lat="43.57984" lon="1.42687">
        <ele>139.5</ele>
        <time>2017-03-08T12:39:09Z</time>
      </trkpt>
      <trkpt lat="43.58" lon="1.42666">
        <ele>139.9</ele>
        <time>2017-03-08T12:39:19Z</time>
      </trkpt>
      <trkpt lat="43.58006" lon="1.42648">
        <ele>139.9</ele>
        <time>2017-03-08T12:39:25Z</time>
      </trkpt>
      <trkpt lat="43.58011" lon="1.42626">
        <ele>139.9</ele>
        <time>2017-03-08T12:39:30Z</time>
      </trkpt>
      <trkpt lat="43.58017" lon="1.42609">
        <ele>140.1</ele>
        <time>2017-03-08T12:39:35Z</time>
      </trkpt>
      <trkpt lat="43.58021" lon="1.42591">
        <ele>140.5</ele>
        <time>2017-03-08T12:39:42Z</time>
      </trkpt>
      <trkpt lat="43.58023" lon="1.42578">
        <ele>140.8</ele>
        <time>2017-03-08T12:39:46Z</time>
      </trkpt>
      <trkpt lat="43.58034" lon="1.42556">
        <ele>140.9</ele>
        <time>2017-03-08T12:39:57Z</time>
      </trkpt>
      <trkpt lat="43.58061" lon="1.42544">
        <ele>140.9</ele>
        <time>2017-03-08T12:40:07Z</time>
      </trkpt>
      <trkpt lat="43.58088" lon="1.42527">
        <ele>140.9</ele>
        <time>2017-03-08T12:40:16Z</time>
      </trkpt>
      <trkpt lat="43.58101" lon="1.42507">
        <ele>140.9</ele>
        <time>2017-03-08T12:40:26Z</time>
      </trkpt>
      <trkpt lat="43.58118" lon="1.42489">
        <ele>140.9</ele>
        <time>2017-03-08T12:40:36Z</time>
      </trkpt>
      <trkpt lat="43.58128" lon="1.42466">
        <ele>140.9</ele>
        <time>2017-03-08T12:40:46Z</time>
      </trkpt>
      <trkpt lat="43.58138" lon="1.42434">
        <ele>140.9</ele>
        <time>2017-03-08T12:40:56Z</time>
      </trkpt>
      <trkpt lat="43.58143" lon="1.42404">
        <ele>140.9</ele>
        <time>2017-03-08T12:41:06Z</time>
      </trkpt>
      <trkpt lat="43.58153" lon="1.42363">
        <ele>140.9</ele>
        <time>2017-03-08T12:41:16Z</time>
      </trkpt>
      <trkpt lat="43.58164" lon="1.42342">
        <ele>140.9</ele>
        <time>2017-03-08T12:41:26Z</time>
      </trkpt>
      <trkpt lat="43.5818" lon="1.42312">
        <ele>140.9</ele>
        <time>2017-03-08T12:41:34Z</time>
      </trkpt>
      <trkpt lat="43.58193" lon="1.42286">
        <ele>140.9</ele>
        <time>2017-03-08T12:41:44Z</time>
      </trkpt>
      <trkpt lat="43.58201" lon="1.42241">
        <ele>140.9</ele>
        <time>2017-03-08T12:41:53Z</time>
      </trkpt>
      <trkpt lat="43.58209" lon="1.42206">
        <ele>140.9</ele>
        <time>2017-03-08T12:42:02Z</time>
      </trkpt>
      <trkpt lat="43.58222" lon="1.42223">
        <ele>140.9</ele>
        <time>2017-03-08T12:42:16Z</time>
      </trkpt>
      <trkpt lat="43.58241" lon="1.42239">
        <ele>140.9</ele>
        <time>2017-03-08T12:42:28Z</time>
      </trkpt>
      <trkpt lat="43.5827" lon="1.42246">
        <ele>140.9</ele>
        <time>2017-03-08T12:42:37Z</time>
      </trkpt>
      <trkpt lat="43.583" lon="1.42245">
        <ele>140.9</ele>
        <time>2017-03-08T12:42:46Z</time>
      </trkpt>
      <trkpt lat="43.58327" lon="1.42251">
        <ele>140.9</ele>
        <time>2017-03-08T12:42:55Z</time>
      </trkpt>
      <trkpt lat="43.58348" lon="1.42252">
        <ele>140.9</ele>
        <time>2017-03-08T12:43:05Z</time>
      </trkpt>
      <trkpt lat="43.58367" lon="1.42254">
        <ele>140.6</ele>
        <time>2017-03-08T12:43:15Z</time>
      </trkpt>
      <trkpt lat="43.58395" lon="1.42259">
        <ele>140</ele>
        <time>2017-03-08T12:43:22Z</time>
      </trkpt>
      <trkpt lat="43.58416" lon="1.42263">
        <ele>139.9</ele>
        <time>2017-03-08T12:43:32Z</time>
      </trkpt>
      <trkpt lat="43.58441" lon="1.42271">
        <ele>139.9</ele>
        <time>2017-03-08T12:43:42Z</time>
      </trkpt>
      <trkpt lat="43.58468" lon="1.42271">
        <ele>139.9</ele>
        <time>2017-03-08T12:43:52Z</time>
      </trkpt>
      <trkpt lat="43.5849" lon="1.4227">
        <ele>139.9</ele>
        <time>2017-03-08T12:44:02Z</time>
      </trkpt>
      <trkpt lat="43.58514" lon="1.42279">
        <ele>139.9</ele>
        <time>2017-03-08T12:44:09Z</time>
      </trkpt>
      <trkpt lat="43.58531" lon="1.42279">
        <ele>139.9</ele>
        <time>2017-03-08T12:44:16Z</time>
      </trkpt>
      <trkpt lat="43.58557" lon="1.42281">
        <ele>139.9</ele>
        <time>2017-03-08T12:44:25Z</time>
      </trkpt>
      <trkpt lat="43.58567" lon="1.42283">
        <ele>139.9</ele>
        <time>2017-03-08T12:44:28Z</time>
      </trkpt>
      <trkpt lat="43.58577" lon="1.42284">
        <ele>139.9</ele>
        <time>2017-03-08T12:44:31Z</time>
      </trkpt>
      <trkpt lat="43.58592" lon="1.42285">
        <ele>139.9</ele>
        <time>2017-03-08T12:44:36Z</time>
      </trkpt>
      <trkpt lat="43.58605" lon="1.42289">
        <ele>139.9</ele>
        <time>2017-03-08T12:44:42Z</time>
      </trkpt>
      <trkpt lat="43.58623" lon="1.4229">
        <ele>139.9</ele>
        <time>2017-03-08T12:44:49Z</time>
      </trkpt>
      <trkpt lat="43.58639" lon="1.42293">
        <ele>139.9</ele>
        <time>2017-03-08T12:44:54Z</time>
      </trkpt>
      <trkpt lat="43.58652" lon="1.42297">
        <ele>139.9</ele>
        <time>2017-03-08T12:45:00Z</time>
      </trkpt>
      <trkpt lat="43.58666" lon="1.42297">
        <ele>139.9</ele>
        <time>2017-03-08T12:45:05Z</time>
      </trkpt>
      <trkpt lat="43.58678" lon="1.42298">
        <ele>139.8</ele>
        <time>2017-03-08T12:45:09Z</time>
      </trkpt>
      <trkpt lat="43.58689" lon="1.42301">
        <ele>139.7</ele>
        <time>2017-03-08T12:45:13Z</time>
      </trkpt>
      <trkpt lat="43.58699" lon="1.42303">
        <ele>139.6</ele>
        <time>2017-03-08T12:45:17Z</time>
      </trkpt>
      <trkpt lat="43.58709" lon="1.42304">
        <ele>139.5</ele>
        <time>2017-03-08T12:45:20Z</time>
      </trkpt>
      <trkpt lat="43.58723" lon="1.42308">
        <ele>139.4</ele>
        <time>2017-03-08T12:45:25Z</time>
      </trkpt>
      <trkpt lat="43.58733" lon="1.4231">
        <ele>139.3</ele>
        <time>2017-03-08T12:45:30Z</time>
      </trkpt>
      <trkpt lat="43.58747" lon="1.42314">
        <ele>139</ele>
        <time>2017-03-08T12:45:38Z</time>
      </trkpt>
      <trkpt lat="43.58758" lon="1.42316">
        <ele>138.9</ele>
        <time>2017-03-08T12:45:42Z</time>
      </trkpt>
      <trkpt lat="43.58769" lon="1.42318">
        <ele>138.9</ele>
        <time>2017-03-08T12:45:45Z</time>
      </trkpt>
      <trkpt lat="43.58783" lon="1.4232">
        <ele>138.9</ele>
        <time>2017-03-08T12:45:50Z</time>
      </trkpt>
      <trkpt lat="43.58803" lon="1.42328">
        <ele>138.9</ele>
        <time>2017-03-08T12:46:03Z</time>
      </trkpt>
      <trkpt lat="43.58833" lon="1.42334">
        <ele>138.9</ele>
        <time>2017-03-08T12:46:07Z</time>
      </trkpt>
      <trkpt lat="43.58853" lon="1.42332">
        <ele>138.9</ele>
        <time>2017-03-08T12:46:18Z</time>
      </trkpt>
      <trkpt lat="43.58873" lon="1.42334">
        <ele>138.9</ele>
        <time>2017-03-08T12:46:25Z</time>
      </trkpt>
      <trkpt lat="43.5889" lon="1.42342">
        <ele>138.9</ele>
        <time>2017-03-08T12:46:35Z</time>
      </trkpt>
      <trkpt lat="43.5891" lon="1.42352">
        <ele>138.9</ele>
        <time>2017-03-08T12:46:45Z</time>
      </trkpt>
      <trkpt lat="43.58936" lon="1.42358">
        <ele>138.9</ele>
        <time>2017-03-08T12:46:55Z</time>
      </trkpt>
      <trkpt lat="43.58962" lon="1.42362">
        <ele>138.9</ele>
        <time>2017-03-08T12:47:05Z</time>
      </trkpt>
      <trkpt lat="43.5899" lon="1.42368">
        <ele>138.9</ele>
        <time>2017-03-08T12:47:12Z</time>
      </trkpt>
      <trkpt lat="43.59025" lon="1.42364">
        <ele>138.9</ele>
        <time>2017-03-08T12:47:19Z</time>
      </trkpt>
      <trkpt lat="43.59053" lon="1.42361">
        <ele>138.9</ele>
        <time>2017-03-08T12:47:28Z</time>
      </trkpt>
      <trkpt lat="43.59079" lon="1.42362">
        <ele>138.9</ele>
        <time>2017-03-08T12:47:38Z</time>
      </trkpt>
      <trkpt lat="43.59106" lon="1.42358">
        <ele>138.9</ele>
        <time>2017-03-08T12:47:47Z</time>
      </trkpt>
      <trkpt lat="43.59133" lon="1.42347">
        <ele>138.9</ele>
        <time>2017-03-08T12:47:56Z</time>
      </trkpt>
      <trkpt lat="43.59161" lon="1.42343">
        <ele>138.9</ele>
        <time>2017-03-08T12:48:04Z</time>
      </trkpt>
      <trkpt lat="43.59188" lon="1.4233">
        <ele>138.9</ele>
        <time>2017-03-08T12:48:14Z</time>
      </trkpt>
      <trkpt lat="43.59214" lon="1.42328">
        <ele>138.9</ele>
        <time>2017-03-08T12:48:24Z</time>
      </trkpt>
      <trkpt lat="43.59239" lon="1.42311">
        <ele>138.9</ele>
        <time>2017-03-08T12:48:32Z</time>
      </trkpt>
      <trkpt lat="43.59265" lon="1.42295">
        <ele>138.9</ele>
        <time>2017-03-08T12:48:41Z</time>
      </trkpt>
      <trkpt lat="43.59281" lon="1.42279">
        <ele>138.9</ele>
        <time>2017-03-08T12:48:53Z</time>
      </trkpt>
      <trkpt lat="43.593" lon="1.42262">
        <ele>138.9</ele>
        <time>2017-03-08T12:49:03Z</time>
      </trkpt>
      <trkpt lat="43.59316" lon="1.42227">
        <ele>138.2</ele>
        <time>2017-03-08T12:49:13Z</time>
      </trkpt>
      <trkpt lat="43.59336" lon="1.42209">
        <ele>138</ele>
        <time>2017-03-08T12:49:23Z</time>
      </trkpt>
      <trkpt lat="43.59345" lon="1.42186">
        <ele>137.9</ele>
        <time>2017-03-08T12:49:33Z</time>
      </trkpt>
      <trkpt lat="43.59365" lon="1.42157">
        <ele>137.9</ele>
        <time>2017-03-08T12:49:39Z</time>
      </trkpt>
      <trkpt lat="43.59372" lon="1.42134">
        <ele>137.9</ele>
        <time>2017-03-08T12:49:49Z</time>
      </trkpt>
      <trkpt lat="43.5938" lon="1.42099">
        <ele>137.9</ele>
        <time>2017-03-08T12:49:56Z</time>
      </trkpt>
      <trkpt lat="43.59388" lon="1.42067">
        <ele>137.9</ele>
        <time>2017-03-08T12:50:06Z</time>
      </trkpt>
      <trkpt lat="43.59396" lon="1.42039">
        <ele>137.9</ele>
        <time>2017-03-08T12:50:16Z</time>
      </trkpt>
      <trkpt lat="43.59395" lon="1.42002">
        <ele>137.9</ele>
        <time>2017-03-08T12:50:26Z</time>
      </trkpt>
      <trkpt lat="43.59381" lon="1.41964">
        <ele>137.9</ele>
        <time>2017-03-08T12:50:31Z</time>
      </trkpt>
      <trkpt lat="43.5938" lon="1.41958">
        <ele>138.8</ele>
        <time>2017-03-08T12:50:59Z</time>
      </trkpt>
      <trkpt lat="43.5939" lon="1.4197">
        <ele>138.9</ele>
        <time>2017-03-08T12:51:07Z</time>
      </trkpt>
      <trkpt lat="43.59397" lon="1.41974">
        <ele>138.9</ele>
        <time>2017-03-08T12:51:12Z</time>
      </trkpt>
      <trkpt lat="43.59414" lon="1.41956">
        <ele>138.9</ele>
        <time>2017-03-08T12:51:21Z</time>
      </trkpt>
      <trkpt lat="43.5942" lon="1.41929">
        <ele>138.9</ele>
        <time>2017-03-08T12:51:38Z</time>
      </trkpt>
      <trkpt lat="43.59418" lon="1.41901">
        <ele>138.9</ele>
        <time>2017-03-08T12:51:48Z</time>
      </trkpt>
      <trkpt lat="43.59412" lon="1.41875">
        <ele>138.9</ele>
        <time>2017-03-08T12:51:58Z</time>
      </trkpt>
      <trkpt lat="43.59411" lon="1.41834">
        <ele>138.9</ele>
        <time>2017-03-08T12:52:08Z</time>
      </trkpt>
      <trkpt lat="43.59401" lon="1.41798">
        <ele>138.9</ele>
        <time>2017-03-08T12:52:18Z</time>
      </trkpt>
      <trkpt lat="43.59406" lon="1.41761">
        <ele>138.9</ele>
        <time>2017-03-08T12:52:28Z</time>
      </trkpt>
      <trkpt lat="43.59407" lon="1.41724">
        <ele>138.9</ele>
        <time>2017-03-08T12:52:35Z</time>
      </trkpt>
      <trkpt lat="43.59397" lon="1.41683">
        <ele>138.9</ele>
        <time>2017-03-08T12:52:44Z</time>
      </trkpt>
      <trkpt lat="43.59395" lon="1.41645">
        <ele>138.9</ele>
        <time>2017-03-08T12:52:52Z</time>
      </trkpt>
      <trkpt lat="43.59388" lon="1.41605">
        <ele>138.9</ele>
        <time>2017-03-08T12:52:59Z</time>
      </trkpt>
      <trkpt lat="43.59388" lon="1.41566">
        <ele>138.9</ele>
        <time>2017-03-08T12:53:07Z</time>
      </trkpt>
      <trkpt lat="43.59382" lon="1.4153">
        <ele>138.9</ele>
        <time>2017-03-08T12:53:15Z</time>
      </trkpt>
      <trkpt lat="43.59395" lon="1.41505">
        <ele>138.9</ele>
        <time>2017-03-08T12:53:25Z</time>
      </trkpt>
      <trkpt lat="43.59419" lon="1.4151">
        <ele>138.9</ele>
        <time>2017-03-08T12:53:35Z</time>
      </trkpt>
      <trkpt lat="43.59446" lon="1.41529">
        <ele>138.8</ele>
        <time>2017-03-08T12:53:42Z</time>
      </trkpt>
      <trkpt lat="43.59477" lon="1.4155">
        <ele>138.6</ele>
        <time>2017-03-08T12:53:49Z</time>
      </trkpt>
      <trkpt lat="43.59479" lon="1.41587">
        <ele>138.4</ele>
        <time>2017-03-08T12:53:56Z</time>
      </trkpt>
      <trkpt lat="43.59479" lon="1.41592">
        <ele>137.9</ele>
        <time>2017-03-08T12:54:03Z</time>
      </trkpt>
      <trkpt lat="43.59479" lon="1.41592">
        <ele>139.5</ele>
        <time>2017-03-08T12:54:03Z</time>
      </trkpt>
      <trkpt lat="43.59479" lon="1.41592">
        <ele>139.5</ele>
        <time>2017-03-08T12:54:13Z</time>
      </trkpt>
    </trkseg>
  </trk>
</gpx>